Hier das METAR für die 16 wichtigsten Deutschen Flughäfen.
(dauert ein wenig.... ich muss laden.....)

ODER
METAR nach ICAO Code suchen

Berlin - Schönefeld

EDDB

METAR
EDDB 171950Z 18006KT CAVOK 03/01 Q1015 NOSIG
EDDBMETAR lang
Berlin-Schoenefeld, Germany (EDDB) 52-23N 013-31E 50M
Jan 17, 2020 - 02:50 PM EST / 2020.01.17 1950 UTC
Wind: from the S (180 degrees) at 7 MPH (6 KT):0
Visibility: greater than 7 mile(s):0
Temperature: 37 F (3 C)
Dew Point: 33 F (1 C)
Relative Humidity: 86%
Pressure (altimeter): 29.97 in. Hg (1015 hPa)
ob: EDDB 171950Z 18006KT CAVOK 03/01 Q1015 NOSIG
cycle: 20

Dresden

EDDC

METAR
EDDC 171950Z 16004KT CAVOK 03/00 Q1017 NOSIG
EDDCMETAR lang
Dresden-Klotzsche, Germany (EDDC) 51-08N 013-45E 232M
Jan 17, 2020 - 02:50 PM EST / 2020.01.17 1950 UTC
Wind: from the SSE (160 degrees) at 5 MPH (4 KT):0
Visibility: greater than 7 mile(s):0
Temperature: 37 F (3 C)
Dew Point: 32 F (0 C)
Relative Humidity: 80%
Pressure (altimeter): 30.03 in. Hg (1017 hPa)
ob: EDDC 171950Z 16004KT CAVOK 03/00 Q1017 NOSIG
cycle: 20

Erfurt

EDDE

METAR
EDDE 171950Z 22015KT 9999 SCT025 07/03 Q1017 NOSIG
EDDEMETAR lang
Erfurt-Bindersleben, Germany (EDDE) 50-59N 010-58E 322M
Jan 17, 2020 - 02:50 PM EST / 2020.01.17 1950 UTC
Wind: from the SW (220 degrees) at 17 MPH (15 KT):0
Visibility: greater than 7 mile(s):0
Sky conditions: partly cloudy
Temperature: 44 F (7 C)
Dew Point: 37 F (3 C)
Relative Humidity: 75%
Pressure (altimeter): 30.03 in. Hg (1017 hPa)
ob: EDDE 171950Z 22015KT 9999 SCT025 07/03 Q1017 NOSIG
cycle: 20

Frankfurt a. Main

EDDF

METAR
EDDF 171950Z 20006KT 9999 FEW014 SCT027 06/05 Q1019 NOSIG
EDDFMETAR lang
Frankfurt / M-Flughafen, Germany (EDDF) 50-03N 008-36E 113M
Jan 17, 2020 - 02:50 PM EST / 2020.01.17 1950 UTC
Wind: from the SSW (200 degrees) at 7 MPH (6 KT):0
Visibility: greater than 7 mile(s):0
Sky conditions: partly cloudy
Temperature: 42 F (6 C)
Dew Point: 41 F (5 C)
Relative Humidity: 93%
Pressure (altimeter): 30.09 in. Hg (1019 hPa)
ob: EDDF 171950Z 20006KT 9999 FEW014 SCT027 06/05 Q1019 NOSIG
cycle: 20

Münster Osnabrück

EDDG

METAR
EDDG 171950Z 21010KT 9999 FEW016 08/06 Q1015 NOSIG
EDDGMETAR lang
Muenster / Osnabrueck, Germany (EDDG) 52-08N 007-42E 53M
Jan 17, 2020 - 02:50 PM EST / 2020.01.17 1950 UTC
Wind: from the SSW (210 degrees) at 12 MPH (10 KT):0
Visibility: greater than 7 mile(s):0
Sky conditions: mostly clear
Temperature: 46 F (8 C)
Dew Point: 42 F (6 C)
Relative Humidity: 87%
Pressure (altimeter): 29.97 in. Hg (1015 hPa)
ob: EDDG 171950Z 21010KT 9999 FEW016 08/06 Q1015 NOSIG
cycle: 20

Hamburg

EDDH

METAR
EDDH 171950Z 21010KT 5000 -RADZ BKN007 08/07 Q1012 TEMPO 4000 SCT007 BKN012
EDDHMETAR lang
Hamburg-Fuhlsbuettel, Germany (EDDH) 53-38N 010-00E 15M
Jan 17, 2020 - 02:50 PM EST / 2020.01.17 1950 UTC
Wind: from the SSW (210 degrees) at 12 MPH (10 KT):0
Visibility: 3 mile(s):0
Sky conditions: mostly cloudy
Weather: light rain, drizzle
Temperature: 46 F (8 C)
Dew Point: 44 F (7 C)
Relative Humidity: 93%
Pressure (altimeter): 29.88 in. Hg (1012 hPa)
ob: EDDH 171950Z 21010KT 5000 -RADZ BKN007 08/07 Q1012 TEMPO 4000 SCT007 BKN012
cycle: 20

Köln - Bonn

EDDK

METAR
EDDK 171950Z 25016KT 9999 FEW036 08/03 Q1019 NOSIG
EDDKMETAR lang
Koeln / Bonn, Germany (EDDK) 50-52N 007-10E 100M
Jan 17, 2020 - 02:50 PM EST / 2020.01.17 1950 UTC
Wind: from the WSW (250 degrees) at 18 MPH (16 KT):0
Visibility: greater than 7 mile(s):0
Sky conditions: mostly clear
Temperature: 46 F (8 C)
Dew Point: 37 F (3 C)
Relative Humidity: 70%
Pressure (altimeter): 30.09 in. Hg (1019 hPa)
ob: EDDK 171950Z 25016KT 9999 FEW036 08/03 Q1019 NOSIG
cycle: 20

Düsseldorf

EDDL

METAR
EDDL 171950Z 24014KT 9999 FEW028 08/04 Q1018 NOSIG
EDDLMETAR lang
Duesseldorf, Germany (EDDL) 51-18N 006-46E 41M
Jan 17, 2020 - 02:50 PM EST / 2020.01.17 1950 UTC
Wind: from the WSW (240 degrees) at 16 MPH (14 KT):0
Visibility: greater than 7 mile(s):0
Sky conditions: mostly clear
Temperature: 46 F (8 C)
Dew Point: 39 F (4 C)
Relative Humidity: 75%
Pressure (altimeter): 30.06 in. Hg (1018 hPa)
ob: EDDL 171950Z 24014KT 9999 FEW028 08/04 Q1018 NOSIG
cycle: 20

München

EDDM

METAR
EDDM 171950Z VRB01KT 9999 -RA BKN048 06/01 Q1020 BECMG 25009KT
EDDMMETAR lang
Munchen, Germany (EDDM) 48-21N 011-47E
Jan 17, 2020 - 02:50 PM EST / 2020.01.17 1950 UTC
Wind: Variable at 1 MPH (1 KT):0
Visibility: greater than 7 mile(s):0
Sky conditions: mostly cloudy
Weather: light rain
Temperature: 42 F (6 C)
Dew Point: 33 F (1 C)
Relative Humidity: 70%
Pressure (altimeter): 30.12 in. Hg (1020 hPa)
ob: EDDM 171950Z VRB01KT 9999 -RA BKN048 06/01 Q1020 BECMG 25009KT
cycle: 20

Nürnberg

EDDN

METAR
EDDN 171950Z 12004KT 9999 -RA SCT030 BKN040 05/03 Q1020 NOSIG
EDDNMETAR lang
Nuernberg, Germany (EDDN) 49-30N 011-03E 318M
Jan 17, 2020 - 02:50 PM EST / 2020.01.17 1950 UTC
Wind: from the ESE (120 degrees) at 5 MPH (4 KT):0
Visibility: greater than 7 mile(s):0
Sky conditions: mostly cloudy
Weather: light rain
Temperature: 41 F (5 C)
Dew Point: 37 F (3 C)
Relative Humidity: 86%
Pressure (altimeter): 30.12 in. Hg (1020 hPa)
ob: EDDN 171950Z 12004KT 9999 -RA SCT030 BKN040 05/03 Q1020 NOSIG
cycle: 20

Leipzig - Halle

EDDP

METAR
EDDP 171950Z 17007KT 9999 -RA NSC 05/02 Q1016 NOSIG
EDDPMETAR lang
Leipzig-Schkeuditz, Germany (EDDP) 51-25N 012-14E 149M
Jan 17, 2020 - 02:50 PM EST / 2020.01.17 1950 UTC
Wind: from the S (170 degrees) at 8 MPH (7 KT):0
Visibility: greater than 7 mile(s):0
Weather: light rain
Temperature: 41 F (5 C)
Dew Point: 35 F (2 C)
Relative Humidity: 80%
Pressure (altimeter): 30.00 in. Hg (1016 hPa)
ob: EDDP 171950Z 17007KT 9999 -RA NSC 05/02 Q1016 NOSIG
cycle: 20

Saarbrücken

EDDR

METAR
EDDR 171950Z 24011KT 9999 FEW013 BKN018 06/05 Q1021 NOSIG
EDDRMETAR lang
Saarbruecken / Ensheim, Germany (EDDR) 49-13N 007-07E 320M
Jan 17, 2020 - 02:50 PM EST / 2020.01.17 1950 UTC
Wind: from the WSW (240 degrees) at 13 MPH (11 KT):0
Visibility: greater than 7 mile(s):0
Sky conditions: mostly cloudy
Temperature: 42 F (6 C)
Dew Point: 41 F (5 C)
Relative Humidity: 93%
Pressure (altimeter): 30.15 in. Hg (1021 hPa)
ob: EDDR 171950Z 24011KT 9999 FEW013 BKN018 06/05 Q1021 NOSIG
cycle: 20

Stuttgart

EDDS

METAR
EDDS 171950Z 23004KT 160V260 9999 FEW010 BKN027 07/05 Q1021 NOSIG
EDDSMETAR lang
Stuttgart-Echterdingen, Germany (EDDS) 48-41N 009-13E 391M
Jan 17, 2020 - 02:50 PM EST / 2020.01.17 1950 UTC
Wind: from the SW (230 degrees) at 5 MPH (4 KT) (direction variable):0
Visibility: greater than 7 mile(s):0
Sky conditions: mostly cloudy
Temperature: 44 F (7 C)
Dew Point: 41 F (5 C)
Relative Humidity: 87%
Pressure (altimeter): 30.15 in. Hg (1021 hPa)
ob: EDDS 171950Z 23004KT 160V260 9999 FEW010 BKN027 07/05 Q1021 NOSIG
cycle: 20

Berlin - Tegel

EDDT

METAR
EDDT 171950Z 19007KT CAVOK 05/01 Q1015 NOSIG
EDDTMETAR lang
Berlin-Tegel, Germany (EDDT) 52-34N 013-19E 37M
Jan 17, 2020 - 02:50 PM EST / 2020.01.17 1950 UTC
Wind: from the S (190 degrees) at 8 MPH (7 KT):0
Visibility: greater than 7 mile(s):0
Temperature: 41 F (5 C)
Dew Point: 33 F (1 C)
Relative Humidity: 75%
Pressure (altimeter): 29.97 in. Hg (1015 hPa)
ob: EDDT 171950Z 19007KT CAVOK 05/01 Q1015 NOSIG
cycle: 20

Hannover

EDDV

METAR
EDDV 171950Z 24010KT 9999 -RA BKN016 09/07 Q1015 TEMPO BKN014
EDDVMETAR lang
Hannover, Germany (EDDV) 52-28N 009-41E 59M
Jan 17, 2020 - 02:50 PM EST / 2020.01.17 1950 UTC
Wind: from the WSW (240 degrees) at 12 MPH (10 KT):0
Visibility: greater than 7 mile(s):0
Sky conditions: mostly cloudy
Weather: light rain
Temperature: 48 F (9 C)
Dew Point: 44 F (7 C)
Relative Humidity: 87%
Pressure (altimeter): 29.97 in. Hg (1015 hPa)
ob: EDDV 171950Z 24010KT 9999 -RA BKN016 09/07 Q1015 TEMPO BKN014
cycle: 20

Bremen

EDDW

METAR
EDDW 171950Z 24010KT 9999 FEW011 BKN040 08/07 Q1013 NOSIG
EDDWMETAR lang
Bremen, Germany (EDDW) 53-03N 008-48E 5M
Jan 17, 2020 - 02:50 PM EST / 2020.01.17 1950 UTC
Wind: from the WSW (240 degrees) at 12 MPH (10 KT):0
Visibility: greater than 7 mile(s):0
Sky conditions: mostly cloudy
Temperature: 46 F (8 C)
Dew Point: 44 F (7 C)
Relative Humidity: 93%
Pressure (altimeter): 29.91 in. Hg (1013 hPa)
ob: EDDW 171950Z 24010KT 9999 FEW011 BKN040 08/07 Q1013 NOSIG
cycle: 20